Time;durP1;ratioP1;P1;durP2;ratioP2;P2;SDS_P1;SDS_P2;PMS_P1;PMS_P2;Temp;Humidity;BMP_temperature;BMP_pressure;BME280_temperature;BME280_humidity;BME280_pressure;Samples;Min_cycle;Max_cycle;Signal;HPM_P1;HPM_P2
2022/07/19 00:00:52;;;;;;;11.43;5.90;;;19.10;99.90;;;;;;5018873;28;20036;-69
2022/07/19 00:03:18;;;;;;;9.60;5.35;;;19.00;99.90;;;;;;5034534;28;20423;-70
2022/07/19 00:05:44;;;;;;;8.73;5.40;;;18.90;99.90;;;;;;5032049;28;20918;-70
2022/07/19 00:08:10;;;;;;;9.25;4.97;;;18.90;99.90;;;;;;5038041;28;20048;-71
2022/07/19 00:10:36;;;;;;;6.25;4.47;;;18.70;99.90;;;;;;5032517;28;20687;-70
2022/07/19 00:13:02;;;;;;;11.02;4.70;;;18.60;99.90;;;;;;5020832;28;20060;-71
2022/07/19 00:15:28;;;;;;;8.85;4.72;;;18.50;99.90;;;;;;5037359;28;20044;-72
2022/07/19 00:17:54;;;;;;;8.55;4.63;;;18.40;99.90;;;;;;5037900;28;20408;-71
2022/07/19 00:20:21;;;;;;;7.40;5.20;;;18.30;99.90;;;;;;5038875;28;20045;-71
2022/07/19 00:22:47;;;;;;;6.40;4.18;;;18.20;99.90;;;;;;5031716;28;20787;-70
2022/07/19 00:25:13;;;;;;;11.93;5.32;;;18.20;99.90;;;;;;5013014;28;20064;-70
2022/07/19 00:27:41;;;;;;;11.32;5.45;;;18.20;99.90;;;;;;5018121;28;20073;-72
2022/07/19 00:30:07;;;;;;;7.45;5.20;;;18.20;99.90;;;;;;5033621;28;20045;-70
2022/07/19 00:32:33;;;;;;;7.70;6.25;;;18.20;99.90;;;;;;5036516;28;20617;-70
2022/07/19 00:34:59;;;;;;;7.82;5.63;;;18.20;99.90;;;;;;5037781;28;20140;-69
2022/07/19 00:37:25;;;;;;;8.65;5.75;;;18.20;99.90;;;;;;5033994;28;20143;-70
2022/07/19 00:39:50;;;;;;;12.07;5.82;;;18.20;99.90;;;;;;5023583;28;20078;-70
2022/07/19 00:42:18;;;;;;;9.68;5.15;;;18.10;99.90;;;;;;5017495;28;21129;-71
2022/07/19 00:44:44;;;;;;;8.35;6.15;;;18.00;99.90;;;;;;5032889;28;20636;-71
2022/07/19 00:47:10;;;;;;;7.70;5.32;;;18.00;99.90;;;;;;5014043;28;20100;-70
2022/07/19 00:49:35;;;;;;;8.95;5.07;;;17.90;99.90;;;;;;5020305;28;20242;-70
2022/07/19 00:52:03;;;;;;;7.78;5.13;;;17.90;99.90;;;;;;5035424;28;20479;-70
2022/07/19 00:54:33;;;;;;;11.80;5.60;;;17.80;99.90;;;;;;5035035;28;20155;-71
2022/07/19 00:57:00;;;;;;;8.27;5.25;;;17.80;99.90;;;;;;5016530;28;20041;-70
2022/07/19 00:59:26;;;;;;;8.82;4.63;;;17.70;99.90;;;;;;5033511;28;20653;-69
2022/07/19 01:01:53;;;;;;;9.00;5.13;;;17.60;99.90;;;;;;5039519;28;20130;-71
2022/07/19 01:04:20;;;;;;;8.40;5.18;;;17.60;99.90;;;;;;5044421;28;20277;-72
2022/07/19 01:06:46;;;;;;;9.52;7.32;;;17.50;99.90;;;;;;5030176;28;20673;-71
2022/07/19 01:09:11;;;;;;;13.48;9.95;;;17.50;99.90;;;;;;5019450;28;20112;-70
2022/07/19 01:11:39;;;;;;;14.68;11.00;;;17.50;99.90;;;;;;5036353;28;20143;-69
2022/07/19 01:14:05;;;;;;;14.57;11.18;;;17.50;99.90;;;;;;5041239;28;20052;-70
2022/07/19 01:16:30;;;;;;;17.23;14.27;;;17.60;99.90;;;;;;5033356;28;20538;-70
2022/07/19 01:18:56;;;;;;;17.15;13.32;;;17.60;99.90;;;;;;5036331;28;20035;-70
2022/07/19 01:21:23;;;;;;;16.35;14.45;;;17.50;99.90;;;;;;5037839;28;20045;-71
2022/07/19 01:23:50;;;;;;;17.45;13.73;;;17.50;99.90;;;;;;5035751;28;20048;-71
2022/07/19 01:26:16;;;;;;;15.93;13.15;;;17.50;99.90;;;;;;5032978;28;20048;-70
2022/07/19 01:28:42;;;;;;;19.75;14.88;;;17.40;99.90;;;;;;5042477;28;20570;-73
2022/07/19 01:31:08;;;;;;;19.48;14.75;;;17.40;99.90;;;;;;5023120;28;20507;-72
2022/07/19 01:33:42;;;;;;;19.23;15.77;;;17.40;99.90;;;;;;5033898;28;20033;-70
2022/07/19 01:36:08;;;;;;;18.50;14.70;;;17.40;99.90;;;;;;5032543;28;20053;-70
2022/07/19 01:38:34;;;;;;;18.77;13.27;;;17.40;99.90;;;;;;5015130;28;20052;-71
2022/07/19 01:41:00;;;;;;;16.48;13.70;;;17.40;99.90;;;;;;5018385;28;20079;-71
2022/07/19 01:43:26;;;;;;;15.95;13.07;;;17.40;99.90;;;;;;5000424;28;20139;-70
2022/07/19 01:45:53;;;;;;;15.20;12.75;;;17.40;99.90;;;;;;5015688;28;20350;-70
2022/07/19 01:48:19;;;;;;;17.27;12.20;;;17.30;99.90;;;;;;5015911;28;20797;-70
2022/07/19 01:50:45;;;;;;;14.30;11.05;;;17.20;99.90;;;;;;5038217;28;20119;-72
2022/07/19 01:53:11;;;;;;;16.25;11.85;;;17.20;99.90;;;;;;5017732;28;20078;-70
2022/07/19 01:55:36;;;;;;;15.40;11.45;;;17.10;99.90;;;;;;5032976;28;20051;-69
2022/07/19 01:58:02;;;;;;;12.60;10.25;;;17.10;99.90;;;;;;5033050;28;20044;-69
2022/07/19 02:00:28;;;;;;;13.13;10.85;;;17.10;99.90;;;;;;5036368;28;20468;-71
2022/07/19 02:02:53;;;;;;;13.65;10.65;;;17.10;99.90;;;;;;5033396;28;20041;-71
2022/07/19 02:05:19;;;;;;;15.70;11.25;;;17.00;99.90;;;;;;5016529;28;20057;-69
2022/07/19 02:07:45;;;;;;;14.18;11.60;;;17.00;99.90;;;;;;5039614;28;20060;-70
2022/07/19 02:10:11;;;;;;;16.58;11.07;;;17.00;99.90;;;;;;5036959;28;20627;-68
2022/07/19 02:12:37;;;;;;;11.48;9.73;;;16.90;99.90;;;;;;5004676;28;20823;-70
2022/07/19 02:15:03;;;;;;;14.93;10.63;;;16.90;99.90;;;;;;5018050;28;20289;-70
2022/07/19 02:17:29;;;;;;;15.23;10.55;;;17.00;99.90;;;;;;5020088;28;20444;-70
2022/07/19 02:19:55;;;;;;;14.45;10.15;;;16.90;99.90;;;;;;5026462;28;20041;-70
2022/07/19 02:22:20;;;;;;;12.63;9.90;;;16.90;99.90;;;;;;5038152;28;20118;-70
2022/07/19 02:24:46;;;;;;;12.20;9.23;;;16.90;99.90;;;;;;5033655;28;20102;-70
2022/07/19 02:27:12;;;;;;;12.18;9.27;;;16.80;99.90;;;;;;5000943;28;20040;-70
2022/07/19 02:29:38;;;;;;;13.80;9.30;;;16.80;99.90;;;;;;5018288;28;20501;-70
2022/07/19 02:32:05;;;;;;;15.38;8.80;;;16.90;99.90;;;;;;5037005;28;20052;-72
2022/07/19 02:34:31;;;;;;;11.20;7.97;;;16.80;99.90;;;;;;5038024;28;20538;-71
2022/07/19 02:36:56;;;;;;;9.73;7.32;;;16.90;99.90;;;;;;5017969;28;21097;-69
2022/07/19 02:39:22;;;;;;;12.85;8.20;;;17.00;99.90;;;;;;5034185;28;20033;-71
2022/07/19 02:41:48;;;;;;;11.18;8.20;;;17.00;99.90;;;;;;5036650;28;20037;-71
2022/07/19 02:44:13;;;;;;;16.67;8.13;;;17.00;99.90;;;;;;5013973;28;20652;-71
2022/07/19 02:46:39;;;;;;;10.73;7.75;;;17.00;99.90;;;;;;5010875;28;20510;-70
2022/07/19 02:49:05;;;;;;;12.63;7.20;;;17.00;99.90;;;;;;4999439;28;20391;-69
2022/07/19 02:51:30;;;;;;;12.75;7.68;;;17.10;99.90;;;;;;5033501;28;20444;-70
2022/07/19 02:53:56;;;;;;;10.85;7.25;;;17.10;99.90;;;;;;5016614;28;20033;-69
2022/07/19 02:56:22;;;;;;;10.85;6.85;;;17.10;99.90;;;;;;5020884;28;20091;-70
2022/07/19 02:58:47;;;;;;;11.73;7.40;;;17.10;99.90;;;;;;5032854;28;20049;-69
2022/07/19 03:01:13;;;;;;;11.25;7.15;;;17.10;99.90;;;;;;5034136;28;20696;-71
2022/07/19 03:03:46;;;;;;;9.00;6.40;;;17.10;99.90;;;;;;5034258;28;20032;-69
2022/07/19 03:06:14;;;;;;;13.65;6.47;;;17.10;99.90;;;;;;5026707;28;20463;-68
2022/07/19 03:08:40;;;;;;;11.10;6.63;;;17.10;99.90;;;;;;5015076;28;20059;-71
2022/07/19 03:11:06;;;;;;;9.75;6.00;;;17.00;99.90;;;;;;5032095;28;20108;-70
2022/07/19 03:13:31;;;;;;;8.15;5.82;;;17.00;99.90;;;;;;5036638;28;20730;-69
2022/07/19 03:15:57;;;;;;;11.45;6.38;;;17.00;99.90;;;;;;5037138;28;20075;-73
2022/07/19 03:18:23;;;;;;;12.65;6.07;;;17.10;99.90;;;;;;5039385;28;20481;-71
2022/07/19 03:20:48;;;;;;;7.97;6.55;;;17.10;99.90;;;;;;5036834;28;20045;-70
2022/07/19 03:23:14;;;;;;;9.43;6.75;;;17.10;99.90;;;;;;5040431;28;20048;-71
2022/07/19 03:25:40;;;;;;;9.73;7.07;;;17.10;99.90;;;;;;5041633;28;20045;-70
2022/07/19 03:28:05;;;;;;;10.02;6.88;;;17.20;99.90;;;;;;5036590;28;20495;-70
2022/07/19 03:30:31;;;;;;;9.57;6.95;;;17.20;99.90;;;;;;5020946;28;20693;-71
2022/07/19 03:32:58;;;;;;;10.07;7.57;;;17.20;99.90;;;;;;5019056;28;20442;-71
2022/07/19 03:35:23;;;;;;;12.07;7.60;;;17.20;99.90;;;;;;5036153;28;20189;-70
2022/07/19 03:37:49;;;;;;;11.95;7.43;;;17.20;99.90;;;;;;5040243;28;20145;-70
2022/07/19 03:40:15;;;;;;;9.55;8.07;;;17.10;99.90;;;;;;5039063;28;20044;-70
2022/07/19 03:42:40;;;;;;;10.65;8.00;;;17.10;99.90;;;;;;5037732;28;20048;-71
2022/07/19 03:45:07;;;;;;;9.88;8.45;;;17.10;99.90;;;;;;5020556;28;20044;-70
2022/07/19 03:47:33;;;;;;;10.82;8.48;;;17.00;99.90;;;;;;5037201;28;20045;-70
2022/07/19 03:49:58;;;;;;;11.55;9.02;;;17.00;99.90;;;;;;5020877;28;20142;-71
2022/07/19 03:52:25;;;;;;;14.20;11.82;;;17.00;99.90;;;;;;5031015;28;20047;-70
2022/07/19 03:54:50;;;;;;;16.90;14.30;;;17.10;99.90;;;;;;5017795;28;20044;-70
2022/07/19 03:57:16;;;;;;;17.02;13.95;;;17.20;99.90;;;;;;5022063;28;20369;-69
2022/07/19 03:59:42;;;;;;;17.88;14.65;;;17.20;99.90;;;;;;5017165;28;20041;-70
2022/07/19 04:02:08;;;;;;;15.65;13.85;;;17.30;99.90;;;;;;5040993;28;20055;-71
2022/07/19 04:04:34;;;;;;;18.13;13.48;;;17.40;99.90;;;;;;5018748;28;20100;-71
2022/07/19 04:06:59;;;;;;;15.38;13.77;;;17.40;99.90;;;;;;5017069;28;20040;-71
2022/07/19 04:09:25;;;;;;;15.48;13.35;;;17.40;99.90;;;;;;5032874;28;20136;-69
2022/07/19 04:11:51;;;;;;;14.07;12.45;;;17.50;99.90;;;;;;5015414;28;20049;-70
2022/07/19 04:14:16;;;;;;;17.48;14.07;;;17.50;99.90;;;;;;5014468;28;20653;-71
2022/07/19 04:16:42;;;;;;;17.80;14.50;;;17.40;99.90;;;;;;5039358;28;20043;-70
2022/07/19 04:19:08;;;;;;;18.48;14.77;;;17.50;99.90;;;;;;5018003;28;20145;-70
2022/07/19 04:21:33;;;;;;;16.90;15.18;;;17.50;99.90;;;;;;4995253;28;20499;-70
2022/07/19 04:23:59;;;;;;;18.48;16.35;;;17.60;99.90;;;;;;5037000;28;20044;-70
2022/07/19 04:26:25;;;;;;;22.20;16.50;;;17.60;99.90;;;;;;5022952;28;20063;-72
2022/07/19 04:28:50;;;;;;;17.88;16.02;;;17.70;99.90;;;;;;5017594;28;20087;-70
2022/07/19 04:31:16;;;;;;;19.98;16.13;;;17.80;99.90;;;;;;5035572;28;20048;-71
2022/07/19 04:33:42;;;;;;;21.77;16.27;;;17.90;99.90;;;;;;5033233;28;20986;-70
2022/07/19 04:36:08;;;;;;;17.85;15.95;;;18.00;99.90;;;;;;5034628;28;20099;-71
2022/07/19 04:38:34;;;;;;;18.77;15.68;;;18.00;99.90;;;;;;5021151;28;20036;-71
2022/07/19 04:41:00;;;;;;;17.25;15.23;;;18.10;99.90;;;;;;5021071;28;20048;-70
2022/07/19 04:43:26;;;;;;;19.38;16.10;;;18.10;99.90;;;;;;5035897;28;20037;-70
2022/07/19 04:45:52;;;;;;;18.75;16.65;;;18.20;99.90;;;;;;5031523;28;20048;-71
2022/07/19 04:48:17;;;;;;;20.70;17.58;;;18.20;99.90;;;;;;5040291;28;20041;-70
2022/07/19 04:50:43;;;;;;;20.20;17.42;;;18.30;99.90;;;;;;5019704;28;20067;-71
2022/07/19 04:53:09;;;;;;;21.90;17.42;;;18.40;99.90;;;;;;5031429;28;20122;-70
2022/07/19 04:55:37;;;;;;;20.95;17.02;;;18.50;99.90;;;;;;5017851;28;20049;-70
2022/07/19 04:58:03;;;;;;;19.45;17.30;;;18.60;99.90;;;;;;5037031;28;20036;-70
2022/07/19 05:00:28;;;;;;;18.95;16.98;;;18.70;99.90;;;;;;5016643;28;20506;-70
2022/07/19 05:02:55;;;;;;;19.13;17.13;;;18.80;99.90;;;;;;5029004;28;21308;-69
2022/07/19 05:05:21;;;;;;;19.38;17.38;;;18.90;99.90;;;;;;5034796;28;20988;-70
2022/07/19 05:07:47;;;;;;;20.33;16.60;;;19.00;99.90;;;;;;5015329;28;20702;-70
2022/07/19 05:10:13;;;;;;;22.92;16.27;;;19.10;99.90;;;;;;5016561;28;20188;-70
2022/07/19 05:12:39;;;;;;;23.60;16.00;;;19.20;99.90;;;;;;5013262;28;20042;-71
2022/07/19 05:15:06;;;;;;;14.88;12.98;;;19.30;99.90;;;;;;5012044;28;20132;-69
2022/07/19 05:17:32;;;;;;;17.92;14.52;;;19.40;99.90;;;;;;5013554;28;20765;-70
2022/07/19 05:19:58;;;;;;;16.70;13.27;;;19.50;99.90;;;;;;5012692;28;20045;-69
2022/07/19 05:22:24;;;;;;;17.65;13.57;;;19.60;99.90;;;;;;4993211;28;20621;-69
2022/07/19 05:24:51;;;;;;;14.38;12.88;;;19.80;99.90;;;;;;5016477;28;20649;-70
2022/07/19 05:27:17;;;;;;;15.10;13.60;;;19.90;99.90;;;;;;5013527;28;20596;-70
2022/07/19 05:29:43;;;;;;;13.95;11.73;;;20.00;99.90;;;;;;5011860;28;20125;-70
2022/07/19 05:32:09;;;;;;;17.85;11.02;;;20.20;99.90;;;;;;5016172;28;20060;-70
2022/07/19 05:34:34;;;;;;;17.02;11.00;;;20.30;99.90;;;;;;5013321;28;20047;-69
2022/07/19 05:37:00;;;;;;;13.63;11.40;;;20.60;99.90;;;;;;5017946;28;20033;-70
2022/07/19 05:39:25;;;;;;;12.73;10.32;;;21.00;99.90;;;;;;5015192;28;20040;-70
2022/07/19 05:41:51;;;;;;;13.43;10.25;;;21.40;99.90;;;;;;5015931;28;20049;-71
2022/07/19 05:44:17;;;;;;;15.35;10.70;;;21.70;99.90;;;;;;5017183;28;20887;-71
2022/07/19 05:46:43;;;;;;;15.10;10.68;;;22.00;99.90;;;;;;5011522;28;20407;-70
2022/07/19 05:49:08;;;;;;;12.77;10.35;;;22.10;99.90;;;;;;5011382;28;20044;-72
2022/07/19 05:51:35;;;;;;;12.73;9.88;;;22.20;99.90;;;;;;5011701;28;20091;-70
2022/07/19 05:54:01;;;;;;;16.85;10.93;;;22.20;99.90;;;;;;5010452;28;20037;-73
2022/07/19 05:56:28;;;;;;;17.92;10.45;;;22.30;99.90;;;;;;5011892;28;20045;-70
2022/07/19 05:58:53;;;;;;;13.57;10.45;;;22.30;99.90;;;;;;5012450;28;20081;-70
2022/07/19 06:01:19;;;;;;;13.23;10.73;;;22.30;99.90;;;;;;4994701;28;20215;-70
2022/07/19 06:03:58;;;;;;;12.85;10.70;;;22.30;99.90;;;;;;5017613;28;20032;-70
2022/07/19 06:06:27;;;;;;;11.30;10.15;;;22.50;99.90;;;;;;5020380;28;20163;-73
2022/07/19 06:08:53;;;;;;;17.90;10.90;;;22.70;99.90;;;;;;5035959;28;20122;-72
2022/07/19 06:11:18;;;;;;;16.33;10.73;;;22.90;99.90;;;;;;5017407;28;20044;-71
2022/07/19 06:13:46;;;;;;;12.82;10.02;;;23.00;99.90;;;;;;5037669;28;20078;-70
2022/07/19 06:16:12;;;;;;;13.13;9.63;;;23.10;99.90;;;;;;5041243;28;20045;-70
2022/07/19 06:18:38;;;;;;;11.07;9.98;;;23.30;99.90;;;;;;5040013;28;20573;-70
2022/07/19 06:21:07;;;;;;;14.93;9.70;;;23.50;99.90;;;;;;5035223;28;20099;-71
2022/07/19 06:23:33;;;;;;;12.52;9.35;;;23.70;99.90;;;;;;5030791;28;20049;-71
2022/07/19 06:25:59;;;;;;;15.57;9.60;;;23.90;99.90;;;;;;5029954;28;20102;-72
2022/07/19 06:28:25;;;;;;;12.82;9.75;;;24.10;99.90;;;;;;5009407;28;20137;-69
2022/07/19 06:30:52;;;;;;;12.15;9.23;;;24.30;99.90;;;;;;5029842;28;20874;-70
2022/07/19 06:33:18;;;;;;;11.63;9.60;;;24.50;99.90;;;;;;5013176;28;20078;-72
2022/07/19 06:35:43;;;;;;;11.48;8.63;;;24.60;99.90;;;;;;5018059;28;20128;-70
2022/07/19 06:38:09;;;;;;;12.65;8.88;;;24.70;99.90;;;;;;5032951;28;20449;-70
2022/07/19 06:40:35;;;;;;;13.52;10.23;;;24.80;99.90;;;;;;5036628;28;20918;-70
2022/07/19 06:43:00;;;;;;;10.88;9.80;;;25.00;99.90;;;;;;5032227;28;20620;-71
2022/07/19 06:45:26;;;;;;;13.68;9.88;;;25.10;99.90;;;;;;5033471;28;20596;-71
2022/07/19 06:47:52;;;;;;;18.73;13.38;;;25.30;99.90;;;;;;5036539;28;20059;-70
2022/07/19 06:50:19;;;;;;;15.48;13.95;;;25.40;99.90;;;;;;5032000;28;20467;-71
2022/07/19 06:52:44;;;;;;;21.17;13.55;;;25.60;99.90;;;;;;5040730;28;20486;-70
2022/07/19 06:55:10;;;;;;;16.50;11.48;;;25.70;99.90;;;;;;5038759;28;20045;-70
2022/07/19 06:57:36;;;;;;;11.45;10.27;;;25.90;99.90;;;;;;5019674;28;20059;-71
2022/07/19 07:00:03;;;;;;;12.88;7.90;;;26.00;99.90;;;;;;5039322;28;20080;-71
2022/07/19 07:02:29;;;;;;;10.48;8.05;;;26.20;99.90;;;;;;5031550;28;20532;-69
2022/07/19 07:04:55;;;;;;;12.55;7.05;;;26.30;99.90;;;;;;5030594;28;20048;-70
2022/07/19 07:07:20;;;;;;;10.88;5.70;;;26.40;99.90;;;;;;5039127;28;20053;-70
2022/07/19 07:09:46;;;;;;;8.13;5.05;;;26.50;99.90;;;;;;5037178;28;20622;-70
2022/07/19 07:12:12;;;;;;;9.63;4.85;;;26.60;99.90;;;;;;5035219;28;20028;-72
2022/07/19 07:14:37;;;;;;;11.77;5.63;;;26.80;99.90;;;;;;5036122;28;20143;-73
2022/07/19 07:17:03;;;;;;;9.18;6.05;;;27.00;99.90;;;;;;5017071;28;20041;-73
2022/07/19 07:19:29;;;;;;;9.27;5.95;;;27.10;99.90;;;;;;5043909;28;20721;-71
2022/07/19 07:21:57;;;;;;;10.20;6.28;;;27.10;99.90;;;;;;5019777;28;20066;-70
2022/07/19 07:24:23;;;;;;;12.35;7.40;;;27.10;99.90;;;;;;5039600;28;20498;-72
2022/07/19 07:26:48;;;;;;;9.23;7.00;;;27.20;99.90;;;;;;5037249;28;20114;-73
2022/07/19 07:29:14;;;;;;;15.18;7.80;;;27.10;99.90;;;;;;5022338;28;20040;-73
2022/07/19 07:31:40;;;;;;;13.63;8.80;;;27.10;99.90;;;;;;5037266;28;20044;-73
2022/07/19 07:34:05;;;;;;;14.32;8.65;;;27.10;99.90;;;;;;5039463;28;20049;-72
2022/07/19 07:36:31;;;;;;;10.15;8.35;;;27.20;99.90;;;;;;5039862;28;20595;-72
2022/07/19 07:38:56;;;;;;;14.50;9.13;;;27.30;99.90;;;;;;5038726;28;20124;-73
2022/07/19 07:41:22;;;;;;;11.18;7.30;;;27.40;99.90;;;;;;5043838;28;20869;-73
2022/07/19 07:43:48;;;;;;;9.50;7.38;;;27.60;99.90;;;;;;5042856;28;20580;-72
2022/07/19 07:46:13;;;;;;;11.75;6.82;;;27.90;99.90;;;;;;5035781;28;20764;-70
2022/07/19 07:48:39;;;;;;;9.93;5.43;;;28.20;99.90;;;;;;5035755;28;20392;-73
2022/07/19 07:51:05;;;;;;;7.03;5.20;;;28.40;99.90;;;;;;5039353;28;20048;-71
2022/07/19 07:53:31;;;;;;;9.32;4.88;;;28.60;99.90;;;;;;5044737;28;20373;-72
2022/07/19 07:55:56;;;;;;;9.15;4.95;;;28.60;99.90;;;;;;5025942;28;20041;-71
2022/07/19 07:58:22;;;;;;;7.55;4.88;;;28.70;99.90;;;;;;5018299;28;20061;-73
2022/07/19 08:00:48;;;;;;;9.07;4.65;;;28.80;99.90;;;;;;5012359;28;20047;-73
2022/07/19 08:03:13;;;;;;;8.57;4.75;;;28.90;99.90;;;;;;5043514;28;20045;-74
2022/07/19 08:05:39;;;;;;;5.60;3.55;;;29.10;99.90;;;;;;5027429;28;20143;-72
2022/07/19 08:08:05;;;;;;;5.72;3.58;;;29.20;91.50;;;;;;5014606;28;20531;-71
2022/07/19 08:10:32;;;;;;;6.60;3.15;;;29.30;83.00;;;;;;5018308;28;20045;-71
2022/07/19 08:12:59;;;;;;;5.18;4.05;;;29.50;78.20;;;;;;5033748;28;20033;-72
2022/07/19 08:15:25;;;;;;;7.10;4.10;;;29.70;88.80;;;;;;5043871;28;21198;-72
2022/07/19 08:17:50;;;;;;;8.50;4.40;;;30.00;99.80;;;;;;5044240;28;20648;-72
2022/07/19 08:20:16;;;;;;;7.70;3.60;;;29.90;99.90;;;;;;5008316;28;20681;-72
2022/07/19 08:22:42;;;;;;;8.35;3.85;;;29.80;99.90;;;;;;5036746;28;20060;-72
2022/07/19 08:25:08;;;;;;;5.07;2.63;;;29.90;99.90;;;;;;5019769;28;20064;-72
2022/07/19 08:27:34;;;;;;;6.75;3.65;;;30.00;95.90;;;;;;5046515;28;20105;-71
2022/07/19 08:30:01;;;;;;;6.55;4.03;;;30.30;99.90;;;;;;5025700;28;20143;-71
2022/07/19 08:32:27;;;;;;;7.50;3.58;;;30.50;99.90;;;;;;5042935;28;20041;-71
2022/07/19 08:34:52;;;;;;;3.47;2.90;;;30.40;99.90;;;;;;5037311;28;20049;-73
2022/07/19 08:37:18;;;;;;;5.03;3.08;;;30.30;99.60;;;;;;5037366;28;20722;-72
2022/07/19 08:39:44;;;;;;;4.15;3.05;;;30.30;99.90;;;;;;5019165;28;20369;-72
2022/07/19 08:42:09;;;;;;;5.38;3.53;;;30.30;99.90;;;;;;4999818;28;20053;-71
2022/07/19 08:44:38;;;;;;;6.20;3.28;;;30.30;99.60;;;;;;5014411;28;20049;-73
2022/07/19 08:47:05;;;;;;;4.25;3.22;;;30.50;98.70;;;;;;5020772;28;20574;-74
2022/07/19 08:49:31;;;;;;;4.45;3.38;;;30.40;99.90;;;;;;5043920;28;20041;-70
2022/07/19 08:51:57;;;;;;;10.00;3.20;;;30.50;99.90;;;;;;5038212;28;20045;-72
2022/07/19 08:54:23;;;;;;;4.20;2.80;;;30.60;99.90;;;;;;5037031;28;20057;-72
2022/07/19 08:59:33;;;;;;;4.80;2.63;;;30.80;99.90;;;;;;5031207;28;20056;-72
2022/07/19 09:01:59;;;;;;;5.88;2.55;;;31.00;99.90;;;;;;5031491;28;20630;-73
2022/07/19 09:04:27;;;;;;;5.75;3.10;;;31.20;97.60;;;;;;5033903;28;20052;-73
2022/07/19 09:06:55;;;;;;;3.83;2.42;;;31.30;98.00;;;;;;5029966;28;20053;-73
2022/07/19 09:09:24;;;;;;;4.18;2.38;;;31.50;95.60;;;;;;5029269;28;20084;-73
2022/07/19 09:11:51;;;;;;;2.60;2.03;;;31.70;94.80;;;;;;5037935;28;20064;-72
2022/07/19 09:14:26;;;;;;;2.85;1.58;;;31.90;92.40;;;;;;5001539;28;20040;-72
2022/07/19 09:17:06;;;;;;;3.00;2.10;;;32.10;91.70;;;;;;5033643;28;20037;-75
2022/07/19 09:19:38;;;;;;;4.32;1.65;;;32.10;91.60;;;;;;5029021;28;20040;-73
2022/07/19 09:22:07;;;;;;;4.03;1.05;;;32.20;89.60;;;;;;5022914;28;20574;-71
2022/07/19 09:24:39;;;;;;;4.78;0.70;;;32.40;61.50;;;;;;5030687;28;20120;-72
2022/07/19 09:27:07;;;;;;;3.00;0.80;;;32.60;47.40;;;;;;5033562;28;20099;-73
2022/07/19 09:29:35;;;;;;;3.90;0.80;;;32.80;43.20;;;;;;5036573;28;20091;-74
2022/07/19 09:32:16;;;;;;;2.97;0.60;;;33.00;41.90;;;;;;5038334;28;20922;-72
2022/07/19 09:34:48;;;;;;;2.67;0.73;;;33.20;43.00;;;;;;5021484;28;20719;-72
2022/07/19 09:37:18;;;;;;;;;;;33.20;39.80;;;;;;5013602;28;20045;-72
2022/07/19 09:39:46;;;;;;;3.53;0.70;;;33.20;39.80;;;;;;5039432;28;20375;-73
2022/07/19 09:42:23;;;;;;;3.17;0.60;;;33.30;38.80;;;;;;5034763;28;20055;-73
2022/07/19 09:45:04;;;;;;;1.80;0.73;;;33.40;38.40;;;;;;5036617;28;20488;-72
2022/07/19 09:47:41;;;;;;;3.88;0.77;;;33.50;37.10;;;;;;5032032;28;20037;-73
2022/07/19 09:50:10;;;;;;;2.45;0.57;;;33.70;38.30;;;;;;5034083;28;20614;-73
2022/07/19 09:52:38;;;;;;;2.75;0.80;;;33.70;37.10;;;;;;5015314;28;20068;-72
2022/07/19 09:55:06;;;;;;;2.30;0.57;;;34.00;37.30;;;;;;5015767;28;20622;-71
2022/07/19 09:57:35;;;;;;;2.53;0.60;;;34.10;36.10;;;;;;5010103;28;20538;-72
2022/07/19 10:00:04;;;;;;;2.22;0.60;;;34.20;35.80;;;;;;5035399;28;20123;-72
2022/07/19 10:02:37;;;;;;;3.15;0.60;;;34.20;35.30;;;;;;5042631;28;20107;-72
2022/07/19 10:05:04;;;;;;;5.28;0.57;;;34.20;35.40;;;;;;5041184;28;20557;-71
2022/07/19 10:07:32;;;;;;;4.00;0.60;;;34.20;36.20;;;;;;5015702;28;20084;-73
2022/07/19 10:10:01;;;;;;;3.35;0.50;;;34.60;33.50;;;;;;5035710;28;20236;-72
2022/07/19 10:12:28;;;;;;;2.95;0.52;;;34.70;33.10;;;;;;5041900;28;20650;-72
2022/07/19 10:14:55;;;;;;;4.40;0.50;;;34.70;33.60;;;;;;5036747;28;20062;-72
2022/07/19 10:17:38;;;;;;;3.65;0.55;;;34.80;33.10;;;;;;5019146;28;20049;-73
2022/07/19 10:20:06;;;;;;;2.78;0.60;;;35.10;33.10;;;;;;5040679;28;20427;-73
2022/07/19 10:22:33;;;;;;;2.75;0.47;;;35.20;32.10;;;;;;5019463;28;20071;-72
2022/07/19 10:25:17;;;;;;;2.80;0.40;;;35.30;31.20;;;;;;5012569;28;20040;-72
2022/07/19 10:27:48;;;;;;;4.22;0.50;;;35.40;31.40;;;;;;5029003;28;20119;-74
2022/07/19 10:30:14;;;;;;;2.30;0.40;;;35.40;31.20;;;;;;5028173;28;20152;-73
2022/07/19 10:32:46;;;;;;;3.08;0.50;;;35.50;31.40;;;;;;5001428;28;20056;-73
2022/07/19 10:35:22;;;;;;;3.83;0.40;;;35.10;31.60;;;;;;5012250;28;20084;-72
2022/07/19 10:38:07;;;;;;;2.72;0.40;;;35.30;30.00;;;;;;5014701;28;20071;-72
2022/07/19 10:40:47;;;;;;;3.75;0.47;;;35.30;30.40;;;;;;5032836;28;20040;-75
2022/07/19 10:43:21;;;;;;;4.32;0.60;;;35.40;30.70;;;;;;5032567;28;20044;-73
2022/07/19 10:45:55;;;;;;;5.00;0.50;;;35.20;30.40;;;;;;5016231;28;20036;-73
2022/07/19 10:48:37;;;;;;;3.90;0.55;;;35.50;31.00;;;;;;5035471;28;20044;-73
2022/07/19 10:51:03;;;;;;;2.92;0.45;;;35.70;30.30;;;;;;5008879;28;20661;-73
2022/07/19 10:53:41;;;;;;;1.98;0.40;;;35.70;29.10;;;;;;5004746;28;20054;-72
2022/07/19 10:56:15;;;;;;;2.97;0.40;;;35.50;29.40;;;;;;5040351;28;20047;-74
2022/07/19 10:58:49;;;;;;;1.20;0.40;;;35.50;29.60;;;;;;5019628;28;20037;-73
2022/07/19 11:01:19;;;;;;;2.45;0.50;;;35.50;29.20;;;;;;5028172;28;20098;-72
2022/07/19 11:03:50;;;;;;;2.30;0.30;;;35.50;29.70;;;;;;5024132;28;20048;-72
2022/07/19 11:06:25;;;;;;;2.58;0.50;;;35.70;29.00;;;;;;5004469;28;21059;-74
2022/07/19 11:08:58;;;;;;;1.27;0.40;;;35.90;29.50;;;;;;5032027;28;20111;-74
2022/07/19 11:11:28;;;;;;;2.40;0.50;;;36.00;29.30;;;;;;5029196;28;20124;-73
2022/07/19 11:13:57;;;;;;;2.42;0.40;;;36.10;28.40;;;;;;5028296;28;20041;-71
2022/07/19 11:16:27;;;;;;;2.40;0.40;;;35.90;28.40;;;;;;5035312;28;20045;-74
2022/07/19 11:19:09;;;;;;;4.28;0.50;;;35.80;29.20;;;;;;5039094;28;20851;-72
2022/07/19 11:21:37;;;;;;;2.08;0.50;;;36.10;28.80;;;;;;5034297;28;20105;-74
2022/07/19 11:24:05;;;;;;;4.78;0.50;;;36.30;28.60;;;;;;5041544;28;20055;-74
2022/07/19 11:26:38;;;;;;;1.35;0.43;;;36.00;28.30;;;;;;5033719;28;20872;-73
2022/07/19 11:29:04;;;;;;;3.13;0.40;;;35.80;28.30;;;;;;5036007;28;20045;-72
2022/07/19 11:31:30;;;;;;;1.63;0.50;;;36.20;28.80;;;;;;5029581;28;20621;-71
2022/07/19 11:33:57;;;;;;;2.47;0.43;;;35.80;28.50;;;;;;5037462;28;20135;-72
2022/07/19 11:36:24;;;;;;;3.28;0.45;;;35.80;28.80;;;;;;5021426;28;20477;-72
2022/07/19 11:38:56;;;;;;;1.73;0.50;;;35.90;28.70;;;;;;5042437;28;20032;-74
2022/07/19 11:41:23;;;;;;;;;;;36.20;28.70;;;;;;5040023;28;20036;-73
2022/07/19 11:44:03;;;;;;;3.47;0.63;;;36.50;28.30;;;;;;5037650;28;19928;-72
2022/07/19 11:46:33;;;;;;;2.45;0.40;;;36.70;27.40;;;;;;5033832;28;20049;-73
2022/07/19 11:49:01;;;;;;;2.90;0.63;;;36.80;28.10;;;;;;5038747;28;20041;-73
2022/07/19 11:51:27;;;;;;;3.33;0.60;;;36.90;27.00;;;;;;5037313;28;20094;-73
2022/07/19 11:53:55;;;;;;;1.77;0.40;;;36.90;27.40;;;;;;5041768;28;20685;-74
2022/07/19 11:56:23;;;;;;;3.08;0.40;;;36.90;26.50;;;;;;5027143;28;20829;-74
2022/07/19 11:58:51;;;;;;;1.13;0.40;;;36.80;26.70;;;;;;5027613;28;20713;-73
2022/07/19 12:01:24;;;;;;;2.22;0.40;;;36.90;27.00;;;;;;5038542;28;20032;-74
2022/07/19 12:04:13;;;;;;;1.35;0.32;;;37.00;26.60;;;;;;5041823;28;20036;-74
2022/07/19 12:06:44;;;;;;;2.70;0.50;;;37.00;26.50;;;;;;5027475;28;20175;-75
2022/07/19 12:09:12;;;;;;;2.20;0.40;;;37.10;26.00;;;;;;5039022;28;20756;-74
2022/07/19 12:11:49;;;;;;;2.92;0.50;;;37.40;26.80;;;;;;5040754;28;20158;-73
2022/07/19 12:14:29;;;;;;;1.20;0.32;;;37.70;26.80;;;;;;5028744;28;20052;-74
2022/07/19 12:17:15;;;;;;;4.07;0.35;;;37.80;25.90;;;;;;5041140;28;20044;-74
2022/07/19 12:19:47;;;;;;;0.90;0.30;;;38.00;25.50;;;;;;5053227;28;20802;-75
2022/07/19 12:22:39;;;;;;;1.15;0.38;;;38.00;25.70;;;;;;5065553;28;20514;-76
2022/07/19 12:25:07;;;;;;;2.00;0.50;;;37.90;26.10;;;;;;5057298;28;20853;-73
2022/07/19 12:27:33;;;;;;;3.20;0.30;;;38.00;26.10;;;;;;5026587;28;20032;-74
2022/07/19 12:30:01;;;;;;;2.33;0.35;;;37.90;24.70;;;;;;5062904;28;20050;-73
2022/07/19 12:32:36;;;;;;;2.33;0.45;;;38.00;25.10;;;;;;5026776;28;20055;-75
2022/07/19 12:35:10;;;;;;;1.40;0.32;;;37.90;25.20;;;;;;5066744;28;20040;-75
2022/07/19 12:37:41;;;;;;;3.03;0.30;;;37.90;24.30;;;;;;5053196;28;20035;-74
2022/07/19 12:40:24;;;;;;;3.22;0.40;;;37.80;24.70;;;;;;5060052;28;20102;-78
2022/07/19 12:42:59;;;;;;;2.70;0.40;;;37.90;23.70;;;;;;5059007;28;20477;-74